Terminal Aerodrome Forecast
Issued by NWS

Home | Current Version | Previous Version | Text Only | Print | Product List | Glossary On
Versions: 1 2 3 4 5 6 7 8 9 10 11 12 13 14 15 16
000
FTUS46 KPDT 281731
TAFBDN
TAF
KBDN 281731Z 2818/2918 22010KT P6SM SCT045 BKN060
     FM282000 23009KT P6SM BKN070 BKN090
     FM290300 19005KT P6SM VCSH SCT045 OVC070
     FM290700 20011KT P6SM VCSH BKN045 OVC060
     FM291200 21013G29KT P6SM -SHRA SCT035 OVC045=

USA.gov is the U.S. government's official web portal to all federal, state and local government web resources and services.